sensor_id;sensor_type;location;lat;lon;timestamp;temperature;humidity
64396;DHT22;50717;53.360;6.290;2022-09-02T00:01:39;15.00;99.90
64396;DHT22;50717;53.360;6.290;2022-09-02T00:04:08;15.00;99.90
64396;DHT22;50717;53.360;6.290;2022-09-02T00:06:35;15.10;99.90
64396;DHT22;50717;53.360;6.290;2022-09-02T00:09:03;14.90;99.90
64396;DHT22;50717;53.360;6.290;2022-09-02T00:11:31;14.80;99.90
64396;DHT22;50717;53.360;6.290;2022-09-02T00:14:00;15.10;99.90
64396;DHT22;50717;53.360;6.290;2022-09-02T00:16:27;15.00;99.90
64396;DHT22;50717;53.360;6.290;2022-09-02T00:18:53;14.70;99.90
64396;DHT22;50717;53.360;6.290;2022-09-02T00:21:20;14.80;99.90
64396;DHT22;50717;53.360;6.290;2022-09-02T00:23:47;15.00;99.90
64396;DHT22;50717;53.360;6.290;2022-09-02T00:26:13;14.70;99.90
64396;DHT22;50717;53.360;6.290;2022-09-02T00:28:39;14.90;99.90
64396;DHT22;50717;53.360;6.290;2022-09-02T00:31:05;14.60;99.90
64396;DHT22;50717;53.360;6.290;2022-09-02T00:33:31;14.90;99.90
64396;DHT22;50717;53.360;6.290;2022-09-02T00:35:58;14.50;99.90
64396;DHT22;50717;53.360;6.290;2022-09-02T00:38:24;14.80;99.90
64396;DHT22;50717;53.360;6.290;2022-09-02T00:40:49;14.40;99.90
64396;DHT22;50717;53.360;6.290;2022-09-02T00:43:45;14.40;99.90
64396;DHT22;50717;53.360;6.290;2022-09-02T00:46:14;14.10;99.90
64396;DHT22;50717;53.360;6.290;2022-09-02T00:48:45;14.50;99.90
64396;DHT22;50717;53.360;6.290;2022-09-02T00:51:13;14.30;99.90
64396;DHT22;50717;53.360;6.290;2022-09-02T00:53:41;14.50;99.90
64396;DHT22;50717;53.360;6.290;2022-09-02T00:56:12;14.20;99.90
64396;DHT22;50717;53.360;6.290;2022-09-02T00:58:39;14.80;99.90
64396;DHT22;50717;53.360;6.290;2022-09-02T01:01:08;14.10;99.90
64396;DHT22;50717;53.360;6.290;2022-09-02T01:03:36;14.40;99.90
64396;DHT22;50717;53.360;6.290;2022-09-02T01:06:02;14.10;99.90
64396;DHT22;50717;53.360;6.290;2022-09-02T01:08:31;14.00;99.90
64396;DHT22;50717;53.360;6.290;2022-09-02T01:10:59;14.60;99.90
64396;DHT22;50717;53.360;6.290;2022-09-02T01:13:28;14.20;99.90
64396;DHT22;50717;53.360;6.290;2022-09-02T01:16:03;14.20;99.90
64396;DHT22;50717;53.360;6.290;2022-09-02T01:18:31;14.20;99.90
64396;DHT22;50717;53.360;6.290;2022-09-02T01:20:58;14.40;99.90
64396;DHT22;50717;53.360;6.290;2022-09-02T01:23:26;14.20;99.90
64396;DHT22;50717;53.360;6.290;2022-09-02T01:25:53;14.40;99.90
64396;DHT22;50717;53.360;6.290;2022-09-02T01:28:19;13.90;99.90
64396;DHT22;50717;53.360;6.290;2022-09-02T01:30:46;14.00;99.90
64396;DHT22;50717;53.360;6.290;2022-09-02T01:33:13;14.00;99.90
64396;DHT22;50717;53.360;6.290;2022-09-02T01:35:39;14.00;99.90
64396;DHT22;50717;53.360;6.290;2022-09-02T01:38:06;13.90;99.90
64396;DHT22;50717;53.360;6.290;2022-09-02T01:40:32;14.50;99.90
64396;DHT22;50717;53.360;6.290;2022-09-02T01:43:00;13.90;99.90
64396;DHT22;50717;53.360;6.290;2022-09-02T01:45:27;13.80;99.90
64396;DHT22;50717;53.360;6.290;2022-09-02T01:47:54;13.80;99.90
64396;DHT22;50717;53.360;6.290;2022-09-02T01:50:20;14.00;99.90
64396;DHT22;50717;53.360;6.290;2022-09-02T01:52:46;14.20;99.90
64396;DHT22;50717;53.360;6.290;2022-09-02T01:55:11;13.70;99.90
64396;DHT22;50717;53.360;6.290;2022-09-02T01:57:37;13.80;99.90
64396;DHT22;50717;53.360;6.290;2022-09-02T02:00:03;14.00;99.90
64396;DHT22;50717;53.360;6.290;2022-09-02T02:02:29;14.10;99.90
64396;DHT22;50717;53.360;6.290;2022-09-02T02:04:55;13.70;99.90
64396;DHT22;50717;53.360;6.290;2022-09-02T02:07:21;13.70;99.90
64396;DHT22;50717;53.360;6.290;2022-09-02T02:09:48;15.00;99.90
64396;DHT22;50717;53.360;6.290;2022-09-02T02:12:15;13.70;99.90
64396;DHT22;50717;53.360;6.290;2022-09-02T02:14:40;14.00;99.90
64396;DHT22;50717;53.360;6.290;2022-09-02T02:17:06;14.00;99.90
64396;DHT22;50717;53.360;6.290;2022-09-02T02:19:33;13.60;99.90
64396;DHT22;50717;53.360;6.290;2022-09-02T02:21:58;13.80;99.90
64396;DHT22;50717;53.360;6.290;2022-09-02T02:24:24;13.70;99.90
64396;DHT22;50717;53.360;6.290;2022-09-02T02:26:50;13.50;99.90
64396;DHT22;50717;53.360;6.290;2022-09-02T02:29:16;13.80;99.90
64396;DHT22;50717;53.360;6.290;2022-09-02T02:31:43;14.00;99.90
64396;DHT22;50717;53.360;6.290;2022-09-02T02:34:10;13.90;99.90
64396;DHT22;50717;53.360;6.290;2022-09-02T02:36:37;13.40;99.90
64396;DHT22;50717;53.360;6.290;2022-09-02T02:39:04;13.70;99.90
64396;DHT22;50717;53.360;6.290;2022-09-02T02:41:30;14.20;99.90
64396;DHT22;50717;53.360;6.290;2022-09-02T02:43:56;13.80;99.90
64396;DHT22;50717;53.360;6.290;2022-09-02T02:46:22;13.70;99.90
64396;DHT22;50717;53.360;6.290;2022-09-02T02:48:47;13.70;99.90
64396;DHT22;50717;53.360;6.290;2022-09-02T02:51:13;13.70;99.90
64396;DHT22;50717;53.360;6.290;2022-09-02T02:53:39;13.50;99.90
64396;DHT22;50717;53.360;6.290;2022-09-02T02:56:06;13.30;99.90
64396;DHT22;50717;53.360;6.290;2022-09-02T02:58:32;13.50;99.90
64396;DHT22;50717;53.360;6.290;2022-09-02T03:00:58;14.50;99.90
64396;DHT22;50717;53.360;6.290;2022-09-02T03:03:26;13.50;99.90
64396;DHT22;50717;53.360;6.290;2022-09-02T03:05:52;13.60;99.90
64396;DHT22;50717;53.360;6.290;2022-09-02T03:08:18;13.20;99.90
64396;DHT22;50717;53.360;6.290;2022-09-02T03:10:46;13.30;99.90
64396;DHT22;50717;53.360;6.290;2022-09-02T03:13:12;13.40;99.90
64396;DHT22;50717;53.360;6.290;2022-09-02T03:15:40;13.20;99.90
64396;DHT22;50717;53.360;6.290;2022-09-02T03:18:06;13.60;99.90
64396;DHT22;50717;53.360;6.290;2022-09-02T03:20:32;13.50;99.90
64396;DHT22;50717;53.360;6.290;2022-09-02T03:22:58;13.50;99.90
64396;DHT22;50717;53.360;6.290;2022-09-02T03:25:26;13.20;99.90
64396;DHT22;50717;53.360;6.290;2022-09-02T03:27:53;13.50;99.90
64396;DHT22;50717;53.360;6.290;2022-09-02T03:30:24;14.40;99.90
64396;DHT22;50717;53.360;6.290;2022-09-02T03:33:00;13.50;99.90
64396;DHT22;50717;53.360;6.290;2022-09-02T03:35:26;13.20;99.90
64396;DHT22;50717;53.360;6.290;2022-09-02T03:37:53;13.40;99.90
64396;DHT22;50717;53.360;6.290;2022-09-02T03:40:25;13.40;99.90
64396;DHT22;50717;53.360;6.290;2022-09-02T03:42:51;13.20;99.90
64396;DHT22;50717;53.360;6.290;2022-09-02T03:45:17;13.10;99.90
64396;DHT22;50717;53.360;6.290;2022-09-02T03:47:45;13.00;99.90
64396;DHT22;50717;53.360;6.290;2022-09-02T03:50:30;13.00;99.90
64396;DHT22;50717;53.360;6.290;2022-09-02T03:52:57;12.80;99.90
64396;DHT22;50717;53.360;6.290;2022-09-02T03:55:24;12.90;99.90
64396;DHT22;50717;53.360;6.290;2022-09-02T03:57:50;12.80;99.90
64396;DHT22;50717;53.360;6.290;2022-09-02T04:00:18;13.00;99.90
64396;DHT22;50717;53.360;6.290;2022-09-02T04:02:44;12.90;99.90
64396;DHT22;50717;53.360;6.290;2022-09-02T04:05:10;13.90;99.90
64396;DHT22;50717;53.360;6.290;2022-09-02T04:07:38;12.90;99.90
64396;DHT22;50717;53.360;6.290;2022-09-02T04:10:04;13.10;99.90
64396;DHT22;50717;53.360;6.290;2022-09-02T04:12:35;12.80;99.90
64396;DHT22;50717;53.360;6.290;2022-09-02T04:15:05;13.10;99.90
64396;DHT22;50717;53.360;6.290;2022-09-02T04:17:35;12.90;99.90
64396;DHT22;50717;53.360;6.290;2022-09-02T04:20:02;12.50;99.90
64396;DHT22;50717;53.360;6.290;2022-09-02T04:22:28;12.80;99.90
64396;DHT22;50717;53.360;6.290;2022-09-02T04:24:54;13.60;99.90
64396;DHT22;50717;53.360;6.290;2022-09-02T04:27:19;12.50;99.90
64396;DHT22;50717;53.360;6.290;2022-09-02T04:29:45;13.10;99.90
64396;DHT22;50717;53.360;6.290;2022-09-02T04:32:11;13.10;99.90
64396;DHT22;50717;53.360;6.290;2022-09-02T04:34:36;12.80;99.90
64396;DHT22;50717;53.360;6.290;2022-09-02T04:37:02;12.60;99.90
64396;DHT22;50717;53.360;6.290;2022-09-02T04:39:28;12.60;99.90
64396;DHT22;50717;53.360;6.290;2022-09-02T04:41:53;12.50;99.90
64396;DHT22;50717;53.360;6.290;2022-09-02T04:44:19;13.70;99.90
64396;DHT22;50717;53.360;6.290;2022-09-02T04:46:45;13.00;99.90
64396;DHT22;50717;53.360;6.290;2022-09-02T04:49:11;12.40;99.90
64396;DHT22;50717;53.360;6.290;2022-09-02T04:51:36;12.50;99.90
64396;DHT22;50717;53.360;6.290;2022-09-02T04:54:02;12.60;99.90
64396;DHT22;50717;53.360;6.290;2022-09-02T04:56:29;12.80;99.90
64396;DHT22;50717;53.360;6.290;2022-09-02T04:58:56;12.90;99.90
64396;DHT22;50717;53.360;6.290;2022-09-02T05:01:28;12.30;99.90
64396;DHT22;50717;53.360;6.290;2022-09-02T05:03:56;12.60;99.90
64396;DHT22;50717;53.360;6.290;2022-09-02T05:06:25;12.80;99.90
64396;DHT22;50717;53.360;6.290;2022-09-02T05:08:54;12.60;99.90
64396;DHT22;50717;53.360;6.290;2022-09-02T05:11:24;13.00;99.90
64396;DHT22;50717;53.360;6.290;2022-09-02T05:13:55;13.10;99.90
64396;DHT22;50717;53.360;6.290;2022-09-02T05:16:25;13.50;99.90
64396;DHT22;50717;53.360;6.290;2022-09-02T05:18:52;12.70;99.90
64396;DHT22;50717;53.360;6.290;2022-09-02T05:21:18;13.20;99.90
64396;DHT22;50717;53.360;6.290;2022-09-02T05:23:44;13.10;99.90
64396;DHT22;50717;53.360;6.290;2022-09-02T05:26:11;13.80;99.90
64396;DHT22;50717;53.360;6.290;2022-09-02T05:28:38;12.80;99.90
64396;DHT22;50717;53.360;6.290;2022-09-02T05:31:07;13.00;99.90
64396;DHT22;50717;53.360;6.290;2022-09-02T05:33:34;12.70;99.90
64396;DHT22;50717;53.360;6.290;2022-09-02T05:36:06;13.20;99.90
64396;DHT22;50717;53.360;6.290;2022-09-02T05:38:33;13.20;99.90
64396;DHT22;50717;53.360;6.290;2022-09-02T05:41:01;13.10;99.90
64396;DHT22;50717;53.360;6.290;2022-09-02T05:43:37;13.20;99.90
64396;DHT22;50717;53.360;6.290;2022-09-02T05:46:07;13.20;99.90
64396;DHT22;50717;53.360;6.290;2022-09-02T05:48:35;13.10;99.90
64396;DHT22;50717;53.360;6.290;2022-09-02T05:51:20;13.30;99.90
64396;DHT22;50717;53.360;6.290;2022-09-02T05:53:45;13.50;99.90
64396;DHT22;50717;53.360;6.290;2022-09-02T05:56:12;13.40;99.90
64396;DHT22;50717;53.360;6.290;2022-09-02T05:58:37;13.70;99.90
64396;DHT22;50717;53.360;6.290;2022-09-02T06:01:10;13.50;99.90
64396;DHT22;50717;53.360;6.290;2022-09-02T06:03:37;13.70;99.90
64396;DHT22;50717;53.360;6.290;2022-09-02T06:06:03;13.90;99.90
64396;DHT22;50717;53.360;6.290;2022-09-02T06:08:29;13.80;99.90
64396;DHT22;50717;53.360;6.290;2022-09-02T06:10:55;14.00;99.90
64396;DHT22;50717;53.360;6.290;2022-09-02T06:13:21;13.70;99.90
64396;DHT22;50717;53.360;6.290;2022-09-02T06:15:48;13.90;99.90
64396;DHT22;50717;53.360;6.290;2022-09-02T06:18:16;14.20;99.90
64396;DHT22;50717;53.360;6.290;2022-09-02T06:20:43;14.00;99.90
64396;DHT22;50717;53.360;6.290;2022-09-02T06:23:10;14.30;99.90
64396;DHT22;50717;53.360;6.290;2022-09-02T06:25:37;14.20;99.90
64396;DHT22;50717;53.360;6.290;2022-09-02T06:28:04;14.40;99.90
64396;DHT22;50717;53.360;6.290;2022-09-02T06:30:30;14.20;99.90
64396;DHT22;50717;53.360;6.290;2022-09-02T06:32:55;14.30;99.90
64396;DHT22;50717;53.360;6.290;2022-09-02T06:35:21;14.40;99.90
64396;DHT22;50717;53.360;6.290;2022-09-02T06:37:47;14.60;99.90
64396;DHT22;50717;53.360;6.290;2022-09-02T06:40:14;14.60;99.90
64396;DHT22;50717;53.360;6.290;2022-09-02T06:42:40;14.90;99.90
64396;DHT22;50717;53.360;6.290;2022-09-02T06:45:06;15.20;99.90
64396;DHT22;50717;53.360;6.290;2022-09-02T06:47:32;15.10;99.90
64396;DHT22;50717;53.360;6.290;2022-09-02T06:49:58;16.30;99.90
64396;DHT22;50717;53.360;6.290;2022-09-02T06:52:24;15.50;99.90
64396;DHT22;50717;53.360;6.290;2022-09-02T06:54:50;15.50;99.90
64396;DHT22;50717;53.360;6.290;2022-09-02T06:57:16;16.30;99.90
64396;DHT22;50717;53.360;6.290;2022-09-02T06:59:42;15.50;99.90
64396;DHT22;50717;53.360;6.290;2022-09-02T07:02:07;15.50;99.90
64396;DHT22;50717;53.360;6.290;2022-09-02T07:04:33;15.60;99.90
64396;DHT22;50717;53.360;6.290;2022-09-02T07:07:17;15.90;99.90
64396;DHT22;50717;53.360;6.290;2022-09-02T07:09:43;16.00;99.90
64396;DHT22;50717;53.360;6.290;2022-09-02T07:12:09;16.00;99.90
64396;DHT22;50717;53.360;6.290;2022-09-02T07:14:37;16.00;99.90
64396;DHT22;50717;53.360;6.290;2022-09-02T07:17:03;16.00;99.90
64396;DHT22;50717;53.360;6.290;2022-09-02T07:19:29;16.30;99.90
64396;DHT22;50717;53.360;6.290;2022-09-02T07:21:55;16.70;99.90
64396;DHT22;50717;53.360;6.290;2022-09-02T07:24:21;16.70;99.90
64396;DHT22;50717;53.360;6.290;2022-09-02T07:26:47;16.80;99.90
64396;DHT22;50717;53.360;6.290;2022-09-02T07:29:12;16.90;99.90
64396;DHT22;50717;53.360;6.290;2022-09-02T07:31:42;17.10;99.90
64396;DHT22;50717;53.360;6.290;2022-09-02T07:34:09;17.10;99.90
64396;DHT22;50717;53.360;6.290;2022-09-02T07:36:37;17.40;99.90
64396;DHT22;50717;53.360;6.290;2022-09-02T07:39:06;17.40;99.90
64396;DHT22;50717;53.360;6.290;2022-09-02T07:41:32;17.20;99.90
64396;DHT22;50717;53.360;6.290;2022-09-02T07:43:57;17.30;99.90
64396;DHT22;50717;53.360;6.290;2022-09-02T07:46:23;17.60;99.90
64396;DHT22;50717;53.360;6.290;2022-09-02T07:48:49;17.40;99.90
64396;DHT22;50717;53.360;6.290;2022-09-02T07:51:15;17.90;99.90
64396;DHT22;50717;53.360;6.290;2022-09-02T07:53:41;17.80;99.90
64396;DHT22;50717;53.360;6.290;2022-09-02T07:56:08;17.90;99.90
64396;DHT22;50717;53.360;6.290;2022-09-02T07:58:34;18.00;99.90
64396;DHT22;50717;53.360;6.290;2022-09-02T08:01:00;17.90;99.90
64396;DHT22;50717;53.360;6.290;2022-09-02T08:03:26;18.10;99.90
64396;DHT22;50717;53.360;6.290;2022-09-02T08:05:52;18.60;99.90
64396;DHT22;50717;53.360;6.290;2022-09-02T08:08:19;18.40;99.90
64396;DHT22;50717;53.360;6.290;2022-09-02T08:10:48;18.20;99.90
64396;DHT22;50717;53.360;6.290;2022-09-02T08:13:15;18.60;99.90
64396;DHT22;50717;53.360;6.290;2022-09-02T08:15:41;18.40;99.90
64396;DHT22;50717;53.360;6.290;2022-09-02T08:18:06;18.30;99.90
64396;DHT22;50717;53.360;6.290;2022-09-02T08:20:32;18.80;99.90
64396;DHT22;50717;53.360;6.290;2022-09-02T08:22:59;18.80;99.90
64396;DHT22;50717;53.360;6.290;2022-09-02T08:25:24;18.70;99.90
64396;DHT22;50717;53.360;6.290;2022-09-02T08:27:52;18.70;99.90
64396;DHT22;50717;53.360;6.290;2022-09-02T08:30:18;19.00;99.90
64396;DHT22;50717;53.360;6.290;2022-09-02T08:32:43;18.90;99.90
64396;DHT22;50717;53.360;6.290;2022-09-02T08:35:10;19.10;99.90
64396;DHT22;50717;53.360;6.290;2022-09-02T08:37:36;19.60;99.90
64396;DHT22;50717;53.360;6.290;2022-09-02T08:40:05;19.70;99.90
64396;DHT22;50717;53.360;6.290;2022-09-02T08:42:37;19.60;99.90
64396;DHT22;50717;53.360;6.290;2022-09-02T08:47:38;19.70;99.90
64396;DHT22;50717;53.360;6.290;2022-09-02T08:50:16;19.50;99.90
64396;DHT22;50717;53.360;6.290;2022-09-02T08:53:03;19.60;99.90
64396;DHT22;50717;53.360;6.290;2022-09-02T08:55:37;19.90;99.90
64396;DHT22;50717;53.360;6.290;2022-09-02T08:58:05;19.90;99.90
64396;DHT22;50717;53.360;6.290;2022-09-02T09:00:39;19.90;99.90
64396;DHT22;50717;53.360;6.290;2022-09-02T09:03:30;19.80;99.90
64396;DHT22;50717;53.360;6.290;2022-09-02T09:06:19;20.50;99.90
64396;DHT22;50717;53.360;6.290;2022-09-02T09:08:59;20.30;99.90
64396;DHT22;50717;53.360;6.290;2022-09-02T09:11:50;20.30;99.90
64396;DHT22;50717;53.360;6.290;2022-09-02T09:19:53;20.80;99.90
64396;DHT22;50717;53.360;6.290;2022-09-02T09:22:24;20.90;99.90
64396;DHT22;50717;53.360;6.290;2022-09-02T09:24:50;20.70;99.90
64396;DHT22;50717;53.360;6.290;2022-09-02T09:27:20;20.80;99.90
64396;DHT22;50717;53.360;6.290;2022-09-02T09:29:48;20.90;99.90
64396;DHT22;50717;53.360;6.290;2022-09-02T09:32:26;20.90;99.90
64396;DHT22;50717;53.360;6.290;2022-09-02T09:34:57;21.10;99.90
64396;DHT22;50717;53.360;6.290;2022-09-02T09:40:01;20.90;99.90
64396;DHT22;50717;53.360;6.290;2022-09-02T09:50:41;21.50;99.90
64396;DHT22;50717;53.360;6.290;2022-09-02T09:53:16;21.50;99.90
64396;DHT22;50717;53.360;6.290;2022-09-02T10:01:28;21.50;99.90
64396;DHT22;50717;53.360;6.290;2022-09-02T10:04:24;21.70;99.90
64396;DHT22;50717;53.360;6.290;2022-09-02T10:06:50;22.00;99.90
64396;DHT22;50717;53.360;6.290;2022-09-02T10:12:05;22.20;99.90
64396;DHT22;50717;53.360;6.290;2022-09-02T10:14:43;22.50;99.90
64396;DHT22;50717;53.360;6.290;2022-09-02T10:31:13;22.70;99.90
64396;DHT22;50717;53.360;6.290;2022-09-02T10:45:28;22.90;99.90
64396;DHT22;50717;53.360;6.290;2022-09-02T10:48:08;23.10;99.90
64396;DHT22;50717;53.360;6.290;2022-09-02T10:50:45;23.00;99.90
64396;DHT22;50717;53.360;6.290;2022-09-02T11:01:01;23.10;99.20
64396;DHT22;50717;53.360;6.290;2022-09-02T11:03:32;23.20;99.90
64396;DHT22;50717;53.360;6.290;2022-09-02T11:06:40;23.00;99.90
64396;DHT22;50717;53.360;6.290;2022-09-02T11:09:02;23.60;99.40
64396;DHT22;50717;53.360;6.290;2022-09-02T11:11:44;23.20;99.10
64396;DHT22;50717;53.360;6.290;2022-09-02T11:14:26;23.40;99.10
64396;DHT22;50717;53.360;6.290;2022-09-02T11:17:07;23.80;99.10
64396;DHT22;50717;53.360;6.290;2022-09-02T11:22:29;23.70;98.00
64396;DHT22;50717;53.360;6.290;2022-09-02T11:25:02;23.70;96.40
64396;DHT22;50717;53.360;6.290;2022-09-02T11:27:45;23.80;97.20
64396;DHT22;50717;53.360;6.290;2022-09-02T11:30:22;23.80;96.80
64396;DHT22;50717;53.360;6.290;2022-09-02T11:35:23;23.50;96.70
64396;DHT22;50717;53.360;6.290;2022-09-02T11:40:58;23.80;97.40
64396;DHT22;50717;53.360;6.290;2022-09-02T11:43:44;24.10;96.90
64396;DHT22;50717;53.360;6.290;2022-09-02T11:49:12;24.00;96.00
64396;DHT22;50717;53.360;6.290;2022-09-02T11:55:16;23.60;95.30
64396;DHT22;50717;53.360;6.290;2022-09-02T11:57:53;24.10;96.20
64396;DHT22;50717;53.360;6.290;2022-09-02T12:00:33;24.20;95.70
64396;DHT22;50717;53.360;6.290;2022-09-02T12:07:58;24.70;96.60
64396;DHT22;50717;53.360;6.290;2022-09-02T12:18:45;25.10;95.90
64396;DHT22;50717;53.360;6.290;2022-09-02T12:21:33;24.90;95.90
64396;DHT22;50717;53.360;6.290;2022-09-02T12:24:10;24.40;95.70
64396;DHT22;50717;53.360;6.290;2022-09-02T12:31:51;24.90;94.40
64396;DHT22;50717;53.360;6.290;2022-09-02T12:36:53;25.10;94.80
64396;DHT22;50717;53.360;6.290;2022-09-02T12:58:34;25.10;94.20
64396;DHT22;50717;53.360;6.290;2022-09-02T13:04:05;25.30;93.20
64396;DHT22;50717;53.360;6.290;2022-09-02T13:09:25;25.20;93.40
64396;DHT22;50717;53.360;6.290;2022-09-02T13:12:10;25.30;93.10
64396;DHT22;50717;53.360;6.290;2022-09-02T13:17:28;25.30;93.80
64396;DHT22;50717;53.360;6.290;2022-09-02T13:23:06;25.50;92.40
64396;DHT22;50717;53.360;6.290;2022-09-02T13:29:04;26.00;92.90
64396;DHT22;50717;53.360;6.290;2022-09-02T13:31:37;26.00;92.60
64396;DHT22;50717;53.360;6.290;2022-09-02T13:34:10;26.20;93.20
64396;DHT22;50717;53.360;6.290;2022-09-02T13:36:43;26.10;92.80
64396;DHT22;50717;53.360;6.290;2022-09-02T13:39:27;26.20;92.80
64396;DHT22;50717;53.360;6.290;2022-09-02T13:41:54;26.20;93.10
64396;DHT22;50717;53.360;6.290;2022-09-02T13:44:27;26.20;92.90
64396;DHT22;50717;53.360;6.290;2022-09-02T13:47:11;26.50;92.20
64396;DHT22;50717;53.360;6.290;2022-09-02T13:49:39;26.80;92.50
64396;DHT22;50717;53.360;6.290;2022-09-02T13:52:11;26.40;92.60
64396;DHT22;50717;53.360;6.290;2022-09-02T13:54:44;26.60;91.50
64396;DHT22;50717;53.360;6.290;2022-09-02T13:57:15;26.90;91.20
64396;DHT22;50717;53.360;6.290;2022-09-02T13:59:50;26.70;91.90
64396;DHT22;50717;53.360;6.290;2022-09-02T14:02:37;26.90;91.40
64396;DHT22;50717;53.360;6.290;2022-09-02T14:05:20;26.90;91.30
64396;DHT22;50717;53.360;6.290;2022-09-02T14:07:50;27.20;91.00
64396;DHT22;50717;53.360;6.290;2022-09-02T14:10:19;27.00;90.90
64396;DHT22;50717;53.360;6.290;2022-09-02T14:12:47;27.00;91.00
64396;DHT22;50717;53.360;6.290;2022-09-02T14:15:15;27.10;90.30
64396;DHT22;50717;53.360;6.290;2022-09-02T14:17:41;27.60;90.30
64396;DHT22;50717;53.360;6.290;2022-09-02T14:22:40;27.70;88.80
64396;DHT22;50717;53.360;6.290;2022-09-02T14:25:08;27.70;89.60
64396;DHT22;50717;53.360;6.290;2022-09-02T14:27:36;27.70;88.70
64396;DHT22;50717;53.360;6.290;2022-09-02T14:30:03;27.70;87.70
64396;DHT22;50717;53.360;6.290;2022-09-02T14:32:34;27.50;87.80
64396;DHT22;50717;53.360;6.290;2022-09-02T14:37:53;27.10;85.80
64396;DHT22;50717;53.360;6.290;2022-09-02T14:40:39;27.10;85.10
64396;DHT22;50717;53.360;6.290;2022-09-02T14:43:12;27.70;87.80
64396;DHT22;50717;53.360;6.290;2022-09-02T14:45:46;27.50;86.90
64396;DHT22;50717;53.360;6.290;2022-09-02T14:48:24;28.00;84.80
64396;DHT22;50717;53.360;6.290;2022-09-02T14:51:03;28.30;85.60
64396;DHT22;50717;53.360;6.290;2022-09-02T14:53:30;28.40;85.30
64396;DHT22;50717;53.360;6.290;2022-09-02T14:55:57;27.90;85.90
64396;DHT22;50717;53.360;6.290;2022-09-02T14:58:25;28.20;85.70
64396;DHT22;50717;53.360;6.290;2022-09-02T15:00:53;27.70;84.80
64396;DHT22;50717;53.360;6.290;2022-09-02T15:03:21;27.70;84.40
64396;DHT22;50717;53.360;6.290;2022-09-02T15:05:48;27.50;84.40
64396;DHT22;50717;53.360;6.290;2022-09-02T15:08:14;27.90;84.60
64396;DHT22;50717;53.360;6.290;2022-09-02T15:10:41;28.10;84.50
64396;DHT22;50717;53.360;6.290;2022-09-02T15:13:29;28.20;83.80
64396;DHT22;50717;53.360;6.290;2022-09-02T15:15:57;28.40;82.10
64396;DHT22;50717;53.360;6.290;2022-09-02T15:18:24;28.20;83.20
64396;DHT22;50717;53.360;6.290;2022-09-02T15:20:50;27.90;83.50
64396;DHT22;50717;53.360;6.290;2022-09-02T15:23:16;27.50;84.00
64396;DHT22;50717;53.360;6.290;2022-09-02T15:25:42;27.60;84.00
64396;DHT22;50717;53.360;6.290;2022-09-02T15:28:08;27.50;84.30
64396;DHT22;50717;53.360;6.290;2022-09-02T15:30:35;27.50;84.60
64396;DHT22;50717;53.360;6.290;2022-09-02T15:33:05;27.70;84.90
64396;DHT22;50717;53.360;6.290;2022-09-02T15:35:34;27.30;84.50
64396;DHT22;50717;53.360;6.290;2022-09-02T15:38:01;27.40;83.90
64396;DHT22;50717;53.360;6.290;2022-09-02T15:40:27;27.50;83.80
64396;DHT22;50717;53.360;6.290;2022-09-02T15:42:54;27.10;83.60
64396;DHT22;50717;53.360;6.290;2022-09-02T15:45:21;27.50;83.60
64396;DHT22;50717;53.360;6.290;2022-09-02T15:47:46;26.90;83.80
64396;DHT22;50717;53.360;6.290;2022-09-02T15:50:12;27.40;84.90
64396;DHT22;50717;53.360;6.290;2022-09-02T15:52:38;26.80;84.30
64396;DHT22;50717;53.360;6.290;2022-09-02T15:55:04;26.30;84.80
64396;DHT22;50717;53.360;6.290;2022-09-02T15:57:30;26.00;84.90
64396;DHT22;50717;53.360;6.290;2022-09-02T15:59:56;26.00;85.00
64396;DHT22;50717;53.360;6.290;2022-09-02T16:02:21;23.70;84.10
64396;DHT22;50717;53.360;6.290;2022-09-02T16:04:47;25.90;86.00
64396;DHT22;50717;53.360;6.290;2022-09-02T16:07:13;25.40;85.80
64396;DHT22;50717;53.360;6.290;2022-09-02T16:09:39;25.60;86.00
64396;DHT22;50717;53.360;6.290;2022-09-02T16:12:05;25.40;86.30
64396;DHT22;50717;53.360;6.290;2022-09-02T16:14:31;25.10;86.40
64396;DHT22;50717;53.360;6.290;2022-09-02T16:16:58;25.20;86.60
64396;DHT22;50717;53.360;6.290;2022-09-02T16:19:25;24.80;86.20
64396;DHT22;50717;53.360;6.290;2022-09-02T16:21:51;24.90;86.60
64396;DHT22;50717;53.360;6.290;2022-09-02T16:24:17;24.90;87.10
64396;DHT22;50717;53.360;6.290;2022-09-02T16:26:46;24.90;87.40
64396;DHT22;50717;53.360;6.290;2022-09-02T16:29:14;24.80;88.20
64396;DHT22;50717;53.360;6.290;2022-09-02T16:31:42;24.60;88.60
64396;DHT22;50717;53.360;6.290;2022-09-02T16:34:11;24.40;88.90
64396;DHT22;50717;53.360;6.290;2022-09-02T16:36:42;24.50;89.80
64396;DHT22;50717;53.360;6.290;2022-09-02T16:39:09;24.40;90.00
64396;DHT22;50717;53.360;6.290;2022-09-02T16:41:40;24.30;90.00
64396;DHT22;50717;53.360;6.290;2022-09-02T16:44:10;24.40;90.10
64396;DHT22;50717;53.360;6.290;2022-09-02T16:46:37;24.10;90.20
64396;DHT22;50717;53.360;6.290;2022-09-02T16:49:07;24.10;89.90
64396;DHT22;50717;53.360;6.290;2022-09-02T16:51:33;24.00;90.70
64396;DHT22;50717;53.360;6.290;2022-09-02T16:54:01;24.10;90.70
64396;DHT22;50717;53.360;6.290;2022-09-02T16:56:27;24.00;90.80
64396;DHT22;50717;53.360;6.290;2022-09-02T16:58:55;23.90;90.90
64396;DHT22;50717;53.360;6.290;2022-09-02T17:01:21;23.70;91.00
64396;DHT22;50717;53.360;6.290;2022-09-02T17:03:48;23.50;90.90
64396;DHT22;50717;53.360;6.290;2022-09-02T17:06:15;23.70;91.10
64396;DHT22;50717;53.360;6.290;2022-09-02T17:08:41;23.40;91.20
64396;DHT22;50717;53.360;6.290;2022-09-02T17:11:29;23.40;91.30
64396;DHT22;50717;53.360;6.290;2022-09-02T17:14:03;23.40;91.00
64396;DHT22;50717;53.360;6.290;2022-09-02T17:16:32;23.30;91.90
64396;DHT22;50717;53.360;6.290;2022-09-02T17:18:59;23.40;91.80
64396;DHT22;50717;53.360;6.290;2022-09-02T17:23:55;23.30;91.40
64396;DHT22;50717;53.360;6.290;2022-09-02T17:26:23;23.00;92.00
64396;DHT22;50717;53.360;6.290;2022-09-02T17:28:50;22.90;92.10
64396;DHT22;50717;53.360;6.290;2022-09-02T17:31:32;23.20;92.20
64396;DHT22;50717;53.360;6.290;2022-09-02T17:34:05;22.70;92.60
64396;DHT22;50717;53.360;6.290;2022-09-02T17:36:33;22.80;91.80
64396;DHT22;50717;53.360;6.290;2022-09-02T17:39:02;22.60;92.60
64396;DHT22;50717;53.360;6.290;2022-09-02T17:41:28;22.70;92.50
64396;DHT22;50717;53.360;6.290;2022-09-02T17:44:13;22.70;92.10
64396;DHT22;50717;53.360;6.290;2022-09-02T17:46:40;22.70;92.80
64396;DHT22;50717;53.360;6.290;2022-09-02T17:49:06;22.30;92.70
64396;DHT22;50717;53.360;6.290;2022-09-02T17:51:32;22.30;92.80
64396;DHT22;50717;53.360;6.290;2022-09-02T17:53:58;22.30;92.90
64396;DHT22;50717;53.360;6.290;2022-09-02T17:56:49;22.00;92.90
64396;DHT22;50717;53.360;6.290;2022-09-02T18:02:00;22.10;93.50
64396;DHT22;50717;53.360;6.290;2022-09-02T18:07:12;21.80;94.20